RPA4754 KDCA-KLGA
Flight info
| Callsign | RPA4754 |
|---|---|
| Flight time | 0h 46m |
| Altitude | 27000 |
| Route | DOCTR5 AGARD SPEAK PROUD2 |
| Aircraft | E170/M-SDE3GILORVW/S |
Departure
| Time | 2026-05-05 00:41 |
|---|---|
| Airport | Ronald Reagan Washington National Airport (KDCA) |
Arrival
| Time | 2026-05-05 01:27 |
|---|---|
| Airport | LaGuardia Airport (KLGA) |
| Time | Latitude | Longitude | Altitude | Speed | Heading |
|---|---|---|---|---|---|
| 2026-05-04 23:37 | 38.85669 | -77.04171 | 22 ft | 0 kts | 231° |
| 2026-05-05 00:34 | 38.85671 | -77.04168 | 22 ft | 2 kts | 231° |
| 2026-05-05 00:34 | 38.85682 | -77.04150 | 22 ft | 3 kts | 231° |
| 2026-05-05 00:34 | 38.85695 | -77.04130 | 23 ft | 3 kts | 231° |
| 2026-05-05 00:34 | 38.85707 | -77.04110 | 24 ft | 3 kts | 240° |
| 2026-05-05 00:35 | 38.85710 | -77.04089 | 23 ft | 3 kts | 301° |
| 2026-05-05 00:35 | 38.85702 | -77.04079 | 22 ft | 2 kts | 322° |
| 2026-05-05 00:35 | 38.85689 | -77.04067 | 26 ft | 1 kts | 322° |
| 2026-05-05 00:35 | 38.85688 | -77.04066 | 26 ft | 0 kts | 322° |
| 2026-05-05 00:38 | 38.85692 | -77.04069 | 26 ft | 3 kts | 338° |
| 2026-05-05 00:38 | 38.85749 | -77.04056 | 23 ft | 13 kts | 2° |
| 2026-05-05 00:38 | 38.85865 | -77.04060 | 23 ft | 20 kts | 353° |
| 2026-05-05 00:39 | 38.85935 | -77.04011 | 24 ft | 11 kts | 64° |
| 2026-05-05 00:39 | 38.85989 | -77.03963 | 22 ft | 4 kts | 18° |
| 2026-05-05 00:39 | 38.86001 | -77.03958 | 23 ft | 2 kts | 17° |
| 2026-05-05 00:39 | 38.86043 | -77.03941 | 22 ft | 11 kts | 17° |
| 2026-05-05 00:40 | 38.86097 | -77.03879 | 21 ft | 10 kts | 111° |
| 2026-05-05 00:40 | 38.86033 | -77.03863 | 21 ft | 35 kts | 179° |
| 2026-05-05 00:40 | 38.85470 | -77.03808 | 23 ft | 126 kts | 176° |
| 2026-05-05 00:40 | 38.84361 | -77.03681 | 364 ft | 179 kts | 175° |
| 2026-05-05 00:41 | 38.83052 | -77.03491 | 1402 ft | 201 kts | 176° |
| 2026-05-05 00:41 | 38.81596 | -77.03261 | 2689 ft | 219 kts | 177° |
| 2026-05-05 00:41 | 38.80057 | -77.02956 | 4259 ft | 225 kts | 174° |
| 2026-05-05 00:41 | 38.78488 | -77.02483 | 5565 ft | 245 kts | 171° |
| 2026-05-05 00:42 | 38.76822 | -77.01840 | 6901 ft | 255 kts | 165° |
| 2026-05-05 00:42 | 38.75204 | -77.00723 | 8019 ft | 280 kts | 147° |
| 2026-05-05 00:42 | 38.73843 | -76.98786 | 8877 ft | 312 kts | 122° |
| 2026-05-05 00:42 | 38.73111 | -76.96075 | 9391 ft | 332 kts | 97° |
| 2026-05-05 00:43 | 38.73420 | -76.93146 | 9748 ft | 329 kts | 60° |
| 2026-05-05 00:43 | 38.74573 | -76.90781 | 10871 ft | 308 kts | 47° |
| 2026-05-05 00:43 | 38.76068 | -76.88842 | 11414 ft | 307 kts | 32° |
| 2026-05-05 00:43 | 38.77902 | -76.87449 | 11857 ft | 308 kts | 17° |
| 2026-05-05 00:44 | 38.79936 | -76.86439 | 12261 ft | 318 kts | 15° |
| 2026-05-05 00:44 | 38.82011 | -76.85450 | 12691 ft | 328 kts | 15° |
| 2026-05-05 00:44 | 38.84170 | -76.84447 | 13325 ft | 332 kts | 14° |
| 2026-05-05 00:44 | 38.86288 | -76.83207 | 13968 ft | 342 kts | 29° |
| 2026-05-05 00:45 | 38.87997 | -76.81016 | 14550 ft | 356 kts | 54° |
| 2026-05-05 00:45 | 38.89129 | -76.78163 | 15247 ft | 360 kts | 64° |
| 2026-05-05 00:45 | 38.90116 | -76.75193 | 15902 ft | 363 kts | 66° |
| 2026-05-05 00:45 | 38.91071 | -76.72187 | 16581 ft | 365 kts | 67° |
| 2026-05-05 00:46 | 38.92034 | -76.69164 | 17263 ft | 367 kts | 67° |
| 2026-05-05 00:46 | 38.93007 | -76.66116 | 17946 ft | 370 kts | 68° |
| 2026-05-05 00:46 | 38.93976 | -76.63055 | 18597 ft | 372 kts | 68° |
| 2026-05-05 00:46 | 38.94947 | -76.59961 | 19227 ft | 375 kts | 68° |
| 2026-05-05 00:47 | 38.95951 | -76.56863 | 19867 ft | 378 kts | 66° |
| 2026-05-05 00:47 | 38.96979 | -76.53745 | 20525 ft | 381 kts | 66° |
| 2026-05-05 00:47 | 38.98014 | -76.50597 | 21125 ft | 384 kts | 66° |
| 2026-05-05 00:47 | 38.99057 | -76.47411 | 21673 ft | 388 kts | 66° |
| 2026-05-05 00:48 | 39.00099 | -76.44214 | 22254 ft | 391 kts | 66° |
| 2026-05-05 00:48 | 39.01015 | -76.40913 | 22790 ft | 396 kts | 77° |
| 2026-05-05 00:48 | 39.01495 | -76.37418 | 23334 ft | 399 kts | 81° |
| 2026-05-05 00:48 | 39.01838 | -76.33858 | 23861 ft | 402 kts | 83° |
| 2026-05-05 00:49 | 39.02149 | -76.30280 | 24399 ft | 404 kts | 83° |
| 2026-05-05 00:49 | 39.02477 | -76.26684 | 24943 ft | 406 kts | 82° |
| 2026-05-05 00:49 | 39.02818 | -76.23116 | 25463 ft | 409 kts | 82° |
| 2026-05-05 00:49 | 39.03177 | -76.19435 | 25976 ft | 411 kts | 82° |
| 2026-05-05 00:50 | 39.03530 | -76.15815 | 26451 ft | 414 kts | 82° |
| 2026-05-05 00:50 | 39.03886 | -76.12124 | 26891 ft | 417 kts | 82° |
| 2026-05-05 00:50 | 39.04244 | -76.08399 | 27040 ft | 426 kts | 82° |
| 2026-05-05 00:50 | 39.04590 | -76.04553 | 27050 ft | 439 kts | 84° |
| 2026-05-05 00:51 | 39.04792 | -76.00565 | 26914 ft | 454 kts | 86° |
| 2026-05-05 00:51 | 39.04920 | -75.96498 | 26913 ft | 458 kts | 87° |
| 2026-05-05 00:51 | 39.05058 | -75.92393 | 26924 ft | 460 kts | 86° |
| 2026-05-05 00:51 | 39.05224 | -75.88281 | 26918 ft | 460 kts | 86° |
| 2026-05-05 00:52 | 39.05406 | -75.84157 | 26922 ft | 460 kts | 86° |
| 2026-05-05 00:52 | 39.05592 | -75.80060 | 26913 ft | 460 kts | 85° |
| 2026-05-05 00:52 | 39.06172 | -75.76017 | 26909 ft | 456 kts | 70° |
| 2026-05-05 00:52 | 39.07553 | -75.72443 | 26921 ft | 453 kts | 53° |
| 2026-05-05 00:53 | 39.09616 | -75.69400 | 26953 ft | 450 kts | 44° |
| 2026-05-05 00:53 | 39.11821 | -75.66528 | 26897 ft | 450 kts | 43° |
| 2026-05-05 00:53 | 39.14041 | -75.63684 | 26923 ft | 450 kts | 43° |
| 2026-05-05 00:53 | 39.16239 | -75.60826 | 26912 ft | 449 kts | 43° |
| 2026-05-05 00:54 | 39.18424 | -75.57942 | 26913 ft | 450 kts | 44° |
| 2026-05-05 00:54 | 39.20596 | -75.55051 | 26916 ft | 450 kts | 44° |
| 2026-05-05 00:54 | 39.22786 | -75.52169 | 26912 ft | 449 kts | 40° |
| 2026-05-05 00:54 | 39.25234 | -75.49693 | 26935 ft | 447 kts | 33° |
| 2026-05-05 00:55 | 39.27795 | -75.47417 | 26890 ft | 444 kts | 31° |
| 2026-05-05 00:55 | 39.30322 | -75.45240 | 26479 ft | 428 kts | 31° |
| 2026-05-05 00:55 | 39.32743 | -75.43139 | 26134 ft | 412 kts | 31° |
| 2026-05-05 00:55 | 39.35092 | -75.41072 | 25505 ft | 406 kts | 31° |
| 2026-05-05 00:56 | 39.37407 | -75.39017 | 24958 ft | 399 kts | 32° |
| 2026-05-05 00:56 | 39.39661 | -75.36994 | 24440 ft | 392 kts | 32° |
| 2026-05-05 00:56 | 39.41893 | -75.34996 | 23929 ft | 389 kts | 31° |
| 2026-05-05 00:56 | 39.44123 | -75.33005 | 23376 ft | 391 kts | 31° |
| 2026-05-05 00:57 | 39.46355 | -75.31015 | 22901 ft | 388 kts | 31° |
| 2026-05-05 00:57 | 39.48582 | -75.29028 | 22333 ft | 389 kts | 31° |
| 2026-05-05 00:57 | 39.50048 | -75.27720 | 22106 ft | 385 kts | 31° |
| 2026-05-05 00:57 | 39.52240 | -75.25746 | 21815 ft | 385 kts | 32° |
| 2026-05-05 00:58 | 39.54407 | -75.23719 | 21545 ft | 383 kts | 33° |
| 2026-05-05 00:58 | 39.57264 | -75.21004 | 21345 ft | 385 kts | 33° |
| 2026-05-05 00:58 | 39.58724 | -75.19623 | 21221 ft | 384 kts | 33° |
| 2026-05-05 00:58 | 39.60885 | -75.17590 | 21037 ft | 384 kts | 32° |
| 2026-05-05 00:59 | 39.63041 | -75.15569 | 20865 ft | 382 kts | 32° |
| 2026-05-05 00:59 | 39.65195 | -75.13549 | 20654 ft | 383 kts | 32° |
| 2026-05-05 00:59 | 39.67355 | -75.11522 | 20397 ft | 382 kts | 32° |
| 2026-05-05 00:59 | 39.69525 | -75.09532 | 19991 ft | 380 kts | 31° |
| 2026-05-05 01:00 | 39.71723 | -75.07649 | 19531 ft | 379 kts | 30° |
| 2026-05-05 01:00 | 39.73066 | -75.06526 | 19195 ft | 378 kts | 29° |
| 2026-05-05 01:00 | 39.75357 | -75.04608 | 18676 ft | 373 kts | 29° |
| 2026-05-05 01:00 | 39.77518 | -75.02766 | 18217 ft | 369 kts | 30° |
| 2026-05-05 01:01 | 39.79644 | -75.00928 | 17789 ft | 367 kts | 30° |
| 2026-05-05 01:01 | 39.81741 | -74.99117 | 17312 ft | 366 kts | 30° |
| 2026-05-05 01:01 | 39.83856 | -74.97288 | 16823 ft | 365 kts | 30° |
| 2026-05-05 01:01 | 39.85962 | -74.95461 | 16364 ft | 362 kts | 30° |
| 2026-05-05 01:02 | 39.88033 | -74.93603 | 15861 ft | 361 kts | 31° |
| 2026-05-05 01:02 | 39.90073 | -74.91728 | 15399 ft | 358 kts | 32° |
| 2026-05-05 01:02 | 39.92083 | -74.89822 | 14932 ft | 358 kts | 37° |
| 2026-05-05 01:02 | 39.93850 | -74.87566 | 14454 ft | 354 kts | 43° |
| 2026-05-05 01:03 | 39.95502 | -74.85204 | 13984 ft | 350 kts | 45° |
| 2026-05-05 01:03 | 39.97104 | -74.82835 | 13489 ft | 345 kts | 45° |
| 2026-05-05 01:03 | 39.98683 | -74.80529 | 13075 ft | 338 kts | 45° |
| 2026-05-05 01:03 | 40.00250 | -74.78268 | 12602 ft | 333 kts | 44° |
| 2026-05-05 01:04 | 40.01790 | -74.76064 | 12185 ft | 327 kts | 44° |
| 2026-05-05 01:04 | 40.04823 | -74.71727 | 11301 ft | 319 kts | 44° |
| 2026-05-05 01:04 | 40.06309 | -74.69595 | 10878 ft | 316 kts | 44° |
| 2026-05-05 01:05 | 40.07780 | -74.67480 | 10464 ft | 312 kts | 44° |
| 2026-05-05 01:05 | 40.09226 | -74.65397 | 10201 ft | 304 kts | 44° |
| 2026-05-05 01:05 | 40.10625 | -74.63379 | 10047 ft | 299 kts | 44° |
| 2026-05-05 01:05 | 40.12021 | -74.61375 | 10008 ft | 297 kts | 44° |
| 2026-05-05 01:06 | 40.13434 | -74.59344 | 10063 ft | 304 kts | 44° |
| 2026-05-05 01:06 | 40.14863 | -74.57289 | 10016 ft | 306 kts | 44° |
| 2026-05-05 01:06 | 40.16289 | -74.55231 | 9992 ft | 304 kts | 44° |
| 2026-05-05 01:06 | 40.17690 | -74.53204 | 9997 ft | 304 kts | 44° |
| 2026-05-05 01:07 | 40.19112 | -74.51151 | 9999 ft | 305 kts | 44° |
| 2026-05-05 01:07 | 40.20533 | -74.49096 | 10010 ft | 305 kts | 44° |
| 2026-05-05 01:07 | 40.22004 | -74.47112 | 10043 ft | 303 kts | 40° |
| 2026-05-05 01:07 | 40.23545 | -74.45222 | 10046 ft | 303 kts | 38° |
| 2026-05-05 01:08 | 40.25095 | -74.43358 | 10033 ft | 303 kts | 38° |
| 2026-05-05 01:08 | 40.26640 | -74.41462 | 10033 ft | 303 kts | 39° |
| 2026-05-05 01:08 | 40.28163 | -74.39549 | 10035 ft | 303 kts | 40° |
| 2026-05-05 01:08 | 40.29674 | -74.37627 | 10032 ft | 304 kts | 40° |
| 2026-05-05 01:09 | 40.31190 | -74.35696 | 10031 ft | 304 kts | 40° |
| 2026-05-05 01:09 | 40.32699 | -74.33777 | 10014 ft | 300 kts | 40° |
| 2026-05-05 01:09 | 40.34198 | -74.31876 | 10018 ft | 300 kts | 40° |
| 2026-05-05 01:09 | 40.35677 | -74.30005 | 10029 ft | 300 kts | 40° |
| 2026-05-05 01:10 | 40.37187 | -74.28094 | 10018 ft | 301 kts | 40° |
| 2026-05-05 01:10 | 40.38712 | -74.26158 | 9963 ft | 302 kts | 40° |
| 2026-05-05 01:10 | 40.40120 | -74.24370 | 9774 ft | 301 kts | 40° |
| 2026-05-05 01:10 | 40.41600 | -74.22485 | 9582 ft | 299 kts | 40° |
| 2026-05-05 01:11 | 40.43085 | -74.20594 | 9551 ft | 294 kts | 40° |
| 2026-05-05 01:11 | 40.44573 | -74.18703 | 9280 ft | 303 kts | 40° |
| 2026-05-05 01:11 | 40.46079 | -74.16788 | 8887 ft | 301 kts | 40° |
| 2026-05-05 01:11 | 40.47575 | -74.14880 | 8585 ft | 296 kts | 40° |
| 2026-05-05 01:12 | 40.49051 | -74.12994 | 8265 ft | 295 kts | 41° |
| 2026-05-05 01:12 | 40.50519 | -74.11121 | 7948 ft | 294 kts | 40° |
| 2026-05-05 01:12 | 40.51917 | -74.09340 | 7577 ft | 296 kts | 40° |
| 2026-05-05 01:12 | 40.53478 | -74.07627 | 7264 ft | 291 kts | 31° |
| 2026-05-05 01:13 | 40.55212 | -74.06234 | 6868 ft | 291 kts | 25° |
| 2026-05-05 01:13 | 40.55991 | -74.05674 | 6685 ft | 291 kts | 24° |
| 2026-05-05 01:13 | 40.57557 | -74.04532 | 6374 ft | 290 kts | 28° |
| 2026-05-05 01:13 | 40.59213 | -74.03019 | 5947 ft | 291 kts | 33° |
| 2026-05-05 01:14 | 40.60815 | -74.01503 | 5760 ft | 285 kts | 32° |
| 2026-05-05 01:14 | 40.62432 | -73.99982 | 5605 ft | 287 kts | 32° |
| 2026-05-05 01:14 | 40.64071 | -73.98455 | 5448 ft | 289 kts | 33° |
| 2026-05-05 01:14 | 40.65708 | -73.96927 | 5300 ft | 289 kts | 33° |
| 2026-05-05 01:15 | 40.67247 | -73.95461 | 5140 ft | 291 kts | 33° |
| 2026-05-05 01:15 | 40.68893 | -73.93908 | 4967 ft | 290 kts | 33° |
| 2026-05-05 01:15 | 40.70132 | -73.92746 | 4841 ft | 291 kts | 33° |
| 2026-05-05 01:15 | 40.71659 | -73.91321 | 4600 ft | 289 kts | 33° |
| 2026-05-05 01:16 | 40.73255 | -73.89833 | 4335 ft | 283 kts | 33° |
| 2026-05-05 01:16 | 40.74853 | -73.88337 | 4050 ft | 278 kts | 33° |
| 2026-05-05 01:16 | 40.76386 | -73.86820 | 3772 ft | 274 kts | 41° |
| 2026-05-05 01:16 | 40.77683 | -73.85014 | 3506 ft | 270 kts | 47° |
| 2026-05-05 01:17 | 40.78914 | -73.83221 | 3472 ft | 255 kts | 47° |
| 2026-05-05 01:17 | 40.80075 | -73.81542 | 3504 ft | 242 kts | 47° |
| 2026-05-05 01:17 | 40.81205 | -73.79900 | 3525 ft | 244 kts | 47° |
| 2026-05-05 01:17 | 40.82366 | -73.78226 | 3561 ft | 249 kts | 47° |
| 2026-05-05 01:18 | 40.83527 | -73.76534 | 3587 ft | 248 kts | 47° |
| 2026-05-05 01:18 | 40.84701 | -73.74838 | 3424 ft | 251 kts | 47° |
| 2026-05-05 01:18 | 40.85851 | -73.73172 | 3394 ft | 248 kts | 47° |
| 2026-05-05 01:18 | 40.87018 | -73.71498 | 3275 ft | 249 kts | 47° |
| 2026-05-05 01:19 | 40.88194 | -73.69801 | 3156 ft | 249 kts | 47° |
| 2026-05-05 01:19 | 40.89366 | -73.68131 | 3031 ft | 247 kts | 47° |
| 2026-05-05 01:19 | 40.90521 | -73.66470 | 2995 ft | 242 kts | 47° |
| 2026-05-05 01:19 | 40.91684 | -73.64822 | 3012 ft | 246 kts | 45° |
| 2026-05-05 01:20 | 40.93085 | -73.63642 | 2941 ft | 228 kts | 11° |
| 2026-05-05 01:20 | 40.94531 | -73.63682 | 2812 ft | 199 kts | 332° |
| 2026-05-05 01:20 | 40.95508 | -73.64759 | 2606 ft | 176 kts | 289° |
| 2026-05-05 01:20 | 40.95812 | -73.66233 | 2748 ft | 162 kts | 272° |
| 2026-05-05 01:21 | 40.95834 | -73.67769 | 2920 ft | 173 kts | 260° |
| 2026-05-05 01:21 | 40.95708 | -73.69385 | 2653 ft | 176 kts | 260° |
| 2026-05-05 01:21 | 40.95310 | -73.70826 | 2415 ft | 163 kts | 232° |
| 2026-05-05 01:21 | 40.94620 | -73.72001 | 2210 ft | 162 kts | 237° |
| 2026-05-05 01:22 | 40.94104 | -73.73326 | 2011 ft | 162 kts | 242° |
| 2026-05-05 01:22 | 40.93527 | -73.74561 | 1993 ft | 155 kts | 220° |
| 2026-05-05 01:22 | 40.92575 | -73.75340 | 2132 ft | 166 kts | 211° |
| 2026-05-05 01:22 | 40.91613 | -73.76138 | 2174 ft | 165 kts | 216° |
| 2026-05-05 01:23 | 40.90659 | -73.76998 | 1941 ft | 168 kts | 213° |
| 2026-05-05 01:23 | 40.89698 | -73.77773 | 1854 ft | 156 kts | 214° |
| 2026-05-05 01:23 | 40.88787 | -73.78531 | 1991 ft | 152 kts | 215° |
| 2026-05-05 01:23 | 40.87846 | -73.79337 | 2024 ft | 163 kts | 214° |
| 2026-05-05 01:24 | 40.86925 | -73.80101 | 1957 ft | 149 kts | 214° |
| 2026-05-05 01:24 | 40.86031 | -73.80838 | 2075 ft | 153 kts | 214° |
| 2026-05-05 01:24 | 40.85122 | -73.81577 | 1779 ft | 148 kts | 213° |
| 2026-05-05 01:24 | 40.84301 | -73.82263 | 1448 ft | 131 kts | 214° |
| 2026-05-05 01:25 | 40.83582 | -73.82889 | 1240 ft | 125 kts | 213° |
| 2026-05-05 01:25 | 40.82841 | -73.83532 | 1127 ft | 128 kts | 210° |
| 2026-05-05 01:25 | 40.82072 | -73.84144 | 960 ft | 128 kts | 210° |
| 2026-05-05 01:25 | 40.81301 | -73.84786 | 764 ft | 137 kts | 210° |
| 2026-05-05 01:26 | 40.80492 | -73.85460 | 517 ft | 140 kts | 210° |
| 2026-05-05 01:26 | 40.79671 | -73.86135 | 319 ft | 136 kts | 208° |
| 2026-05-05 01:26 | 40.78854 | -73.86813 | 121 ft | 140 kts | 210° |
| 2026-05-05 01:26 | 40.78069 | -73.87456 | 14 ft | 120 kts | 213° |
| 2026-05-05 01:27 | 40.77583 | -73.87863 | 22 ft | 57 kts | 215° |
| 2026-05-05 01:27 | 40.77342 | -73.87996 | 18 ft | 17 kts | 183° |
| 2026-05-05 01:27 | 40.77301 | -73.87959 | 18 ft | 6 kts | 56° |
| 2026-05-05 01:27 | 40.77340 | -73.87915 | 19 ft | 8 kts | 31° |
| 2026-05-05 01:28 | 40.77403 | -73.87861 | 18 ft | 14 kts | 34° |
| 2026-05-05 01:28 | 40.77491 | -73.87789 | 19 ft | 15 kts | 31° |
| 2026-05-05 01:28 | 40.77585 | -73.87710 | 20 ft | 14 kts | 37° |
| 2026-05-05 01:28 | 40.77625 | -73.87597 | 19 ft | 13 kts | 42° |
| 2026-05-05 01:29 | 40.77699 | -73.87531 | 17 ft | 13 kts | 33° |
| 2026-05-05 01:29 | 40.77761 | -73.87415 | 14 ft | 19 kts | 69° |
| 2026-05-05 01:29 | 40.77765 | -73.87259 | 13 ft | 14 kts | 109° |
| 2026-05-05 01:29 | 40.77718 | -73.87152 | 14 ft | 14 kts | 123° |
| 2026-05-05 01:30 | 40.77668 | -73.87050 | 12 ft | 15 kts | 122° |
| 2026-05-05 01:30 | 40.77617 | -73.86993 | 13 ft | 7 kts | 192° |
| 2026-05-05 01:30 | 40.77593 | -73.87008 | 16 ft | 2 kts | 211° |
| 2026-05-05 01:30 | 40.77578 | -73.87020 | 18 ft | 4 kts | 213° |
| 2026-05-05 01:31 | 40.77538 | -73.87057 | 17 ft | 8 kts | 218° |
| 2026-05-05 01:31 | 40.77495 | -73.87089 | 19 ft | 8 kts | 201° |
| 2026-05-05 01:31 | 40.77478 | -73.87111 | 17 ft | 3 kts | 264° |
| 2026-05-05 01:31 | 40.77486 | -73.87130 | 17 ft | 1 kts | 320° |
| 2026-05-05 01:32 | 40.77497 | -73.87140 | 17 ft | 2 kts | 326° |
| 2026-05-05 01:32 | 40.77509 | -73.87150 | 17 ft | 2 kts | 326° |
| 2026-05-05 01:32 | 40.77512 | -73.87153 | 17 ft | 0 kts | 325° |